sensor_id;sensor_type;location;lat;lon;timestamp;P1;durP1;ratioP1;P2;durP2;ratioP2
17650;SDS011;26663;59.302;18.082;2023-01-10T00:00:30;6.23;;;5.33;;
17650;SDS011;26663;59.302;18.082;2023-01-10T00:03:39;9.17;;;5.57;;
17650;SDS011;26663;59.302;18.082;2023-01-10T00:06:45;7.60;;;5.23;;
17650;SDS011;26663;59.302;18.082;2023-01-10T00:09:50;5.80;;;4.83;;
17650;SDS011;26663;59.302;18.082;2023-01-10T00:12:59;8.23;;;5.00;;
17650;SDS011;26663;59.302;18.082;2023-01-10T00:16:23;7.20;;;5.60;;
17650;SDS011;26663;59.302;18.082;2023-01-10T00:19:30;5.47;;;4.63;;
17650;SDS011;26663;59.302;18.082;2023-01-10T00:22:37;5.93;;;5.10;;
17650;SDS011;26663;59.302;18.082;2023-01-10T00:25:42;6.07;;;5.47;;
17650;SDS011;26663;59.302;18.082;2023-01-10T00:28:50;5.00;;;4.50;;
17650;SDS011;26663;59.302;18.082;2023-01-10T00:31:57;5.77;;;4.90;;
17650;SDS011;26663;59.302;18.082;2023-01-10T00:35:03;5.20;;;4.70;;
17650;SDS011;26663;59.302;18.082;2023-01-10T00:38:11;7.87;;;5.13;;
17650;SDS011;26663;59.302;18.082;2023-01-10T00:41:16;5.73;;;5.20;;
17650;SDS011;26663;59.302;18.082;2023-01-10T00:44:41;8.03;;;5.10;;
17650;SDS011;26663;59.302;18.082;2023-01-10T00:47:53;5.90;;;4.70;;
17650;SDS011;26663;59.302;18.082;2023-01-10T00:51:00;4.97;;;4.57;;
17650;SDS011;26663;59.302;18.082;2023-01-10T00:54:11;5.33;;;4.83;;
17650;SDS011;26663;59.302;18.082;2023-01-10T00:57:18;7.30;;;5.40;;
17650;SDS011;26663;59.302;18.082;2023-01-10T01:00:28;6.93;;;5.33;;
17650;SDS011;26663;59.302;18.082;2023-01-10T01:03:36;6.40;;;5.30;;
17650;SDS011;26663;59.302;18.082;2023-01-10T01:06:42;6.37;;;5.00;;
17650;SDS011;26663;59.302;18.082;2023-01-10T01:09:49;5.97;;;4.93;;
17650;SDS011;26663;59.302;18.082;2023-01-10T01:13:12;5.70;;;5.20;;
17650;SDS011;26663;59.302;18.082;2023-01-10T01:16:19;5.60;;;5.10;;
17650;SDS011;26663;59.302;18.082;2023-01-10T01:19:32;6.20;;;5.47;;
17650;SDS011;26663;59.302;18.082;2023-01-10T01:22:43;6.10;;;5.20;;
17650;SDS011;26663;59.302;18.082;2023-01-10T01:25:50;5.97;;;5.33;;
17650;SDS011;26663;59.302;18.082;2023-01-10T01:28:56;7.07;;;5.93;;
17650;SDS011;26663;59.302;18.082;2023-01-10T01:32:02;8.10;;;5.77;;
17650;SDS011;26663;59.302;18.082;2023-01-10T01:35:13;7.50;;;5.57;;
17650;SDS011;26663;59.302;18.082;2023-01-10T01:38:19;6.27;;;5.67;;
17650;SDS011;26663;59.302;18.082;2023-01-10T01:41:24;5.60;;;5.10;;
17650;SDS011;26663;59.302;18.082;2023-01-10T01:45:02;6.87;;;5.03;;
17650;SDS011;26663;59.302;18.082;2023-01-10T01:48:40;5.20;;;4.77;;
17650;SDS011;26663;59.302;18.082;2023-01-10T01:51:50;5.40;;;4.90;;
17650;SDS011;26663;59.302;18.082;2023-01-10T01:55:13;5.03;;;4.60;;
17650;SDS011;26663;59.302;18.082;2023-01-10T01:58:19;5.07;;;4.57;;
17650;SDS011;26663;59.302;18.082;2023-01-10T02:01:31;4.57;;;4.27;;
17650;SDS011;26663;59.302;18.082;2023-01-10T02:04:39;4.87;;;4.40;;
17650;SDS011;26663;59.302;18.082;2023-01-10T02:07:50;4.37;;;3.97;;
17650;SDS011;26663;59.302;18.082;2023-01-10T02:11:02;4.30;;;4.00;;
17650;SDS011;26663;59.302;18.082;2023-01-10T02:14:27;4.63;;;4.23;;
17650;SDS011;26663;59.302;18.082;2023-01-10T02:17:37;4.60;;;4.20;;
17650;SDS011;26663;59.302;18.082;2023-01-10T02:20:48;4.23;;;3.93;;
17650;SDS011;26663;59.302;18.082;2023-01-10T02:28:02;4.47;;;4.07;;
17650;SDS011;26663;59.302;18.082;2023-01-10T02:31:25;3.47;;;3.27;;
17650;SDS011;26663;59.302;18.082;2023-01-10T02:35:01;3.80;;;3.50;;
17650;SDS011;26663;59.302;18.082;2023-01-10T02:38:19;3.70;;;3.50;;
17650;SDS011;26663;59.302;18.082;2023-01-10T02:41:34;3.70;;;3.50;;
17650;SDS011;26663;59.302;18.082;2023-01-10T02:44:44;2.83;;;2.73;;
17650;SDS011;26663;59.302;18.082;2023-01-10T02:47:54;3.90;;;2.80;;
17650;SDS011;26663;59.302;18.082;2023-01-10T02:51:13;2.60;;;2.60;;
17650;SDS011;26663;59.302;18.082;2023-01-10T02:54:24;2.17;;;2.10;;
17650;SDS011;26663;59.302;18.082;2023-01-10T02:57:40;2.60;;;2.50;;
17650;SDS011;26663;59.302;18.082;2023-01-10T03:00:51;2.77;;;2.57;;
17650;SDS011;26663;59.302;18.082;2023-01-10T03:04:12;2.50;;;2.40;;
17650;SDS011;26663;59.302;18.082;2023-01-10T03:07:27;2.17;;;2.17;;
17650;SDS011;26663;59.302;18.082;2023-01-10T03:10:36;2.10;;;2.00;;
17650;SDS011;26663;59.302;18.082;2023-01-10T03:13:45;2.60;;;2.50;;
17650;SDS011;26663;59.302;18.082;2023-01-10T03:16:57;2.00;;;2.00;;
17650;SDS011;26663;59.302;18.082;2023-01-10T03:20:09;2.00;;;1.90;;
17650;SDS011;26663;59.302;18.082;2023-01-10T03:23:16;1.90;;;1.90;;
17650;SDS011;26663;59.302;18.082;2023-01-10T03:26:24;1.80;;;1.80;;
17650;SDS011;26663;59.302;18.082;2023-01-10T03:29:34;1.60;;;1.60;;
17650;SDS011;26663;59.302;18.082;2023-01-10T03:32:43;1.60;;;1.60;;
17650;SDS011;26663;59.302;18.082;2023-01-10T03:35:51;1.57;;;1.57;;
17650;SDS011;26663;59.302;18.082;2023-01-10T03:39:10;1.67;;;1.57;;
17650;SDS011;26663;59.302;18.082;2023-01-10T03:42:24;1.40;;;1.40;;
17650;SDS011;26663;59.302;18.082;2023-01-10T03:45:53;1.50;;;1.50;;
17650;SDS011;26663;59.302;18.082;2023-01-10T03:49:01;1.40;;;1.40;;
17650;SDS011;26663;59.302;18.082;2023-01-10T03:52:11;1.60;;;1.60;;
17650;SDS011;26663;59.302;18.082;2023-01-10T03:55:19;1.40;;;1.40;;
17650;SDS011;26663;59.302;18.082;2023-01-10T03:58:27;1.63;;;1.63;;
17650;SDS011;26663;59.302;18.082;2023-01-10T04:01:34;1.40;;;1.40;;
17650;SDS011;26663;59.302;18.082;2023-01-10T04:04:41;1.37;;;1.37;;
17650;SDS011;26663;59.302;18.082;2023-01-10T04:07:46;1.50;;;1.47;;
17650;SDS011;26663;59.302;18.082;2023-01-10T04:10:53;1.60;;;1.60;;
17650;SDS011;26663;59.302;18.082;2023-01-10T04:14:00;1.50;;;1.50;;
17650;SDS011;26663;59.302;18.082;2023-01-10T04:17:09;1.30;;;1.30;;
17650;SDS011;26663;59.302;18.082;2023-01-10T04:20:15;2.00;;;1.90;;
17650;SDS011;26663;59.302;18.082;2023-01-10T04:23:21;1.53;;;1.53;;
17650;SDS011;26663;59.302;18.082;2023-01-10T04:27:00;1.90;;;1.80;;
17650;SDS011;26663;59.302;18.082;2023-01-10T04:30:09;2.20;;;1.80;;
17650;SDS011;26663;59.302;18.082;2023-01-10T04:33:14;1.87;;;1.87;;
17650;SDS011;26663;59.302;18.082;2023-01-10T04:36:19;1.80;;;1.80;;
17650;SDS011;26663;59.302;18.082;2023-01-10T04:39:27;2.20;;;1.93;;
17650;SDS011;26663;59.302;18.082;2023-01-10T04:42:35;2.17;;;1.93;;
17650;SDS011;26663;59.302;18.082;2023-01-10T04:45:42;2.43;;;2.07;;
17650;SDS011;26663;59.302;18.082;2023-01-10T04:48:53;1.97;;;1.70;;
17650;SDS011;26663;59.302;18.082;2023-01-10T04:52:03;2.00;;;1.90;;
17650;SDS011;26663;59.302;18.082;2023-01-10T04:55:11;2.07;;;2.07;;
17650;SDS011;26663;59.302;18.082;2023-01-10T04:58:18;2.30;;;2.30;;
17650;SDS011;26663;59.302;18.082;2023-01-10T05:01:25;2.10;;;2.10;;
17650;SDS011;26663;59.302;18.082;2023-01-10T05:04:32;2.70;;;2.50;;
17650;SDS011;26663;59.302;18.082;2023-01-10T05:07:38;2.43;;;2.33;;
17650;SDS011;26663;59.302;18.082;2023-01-10T05:10:45;2.50;;;2.40;;
17650;SDS011;26663;59.302;18.082;2023-01-10T05:13:53;2.60;;;2.40;;
17650;SDS011;26663;59.302;18.082;2023-01-10T05:17:01;2.50;;;2.50;;
17650;SDS011;26663;59.302;18.082;2023-01-10T05:20:11;2.40;;;2.30;;
17650;SDS011;26663;59.302;18.082;2023-01-10T05:23:18;4.13;;;2.67;;
17650;SDS011;26663;59.302;18.082;2023-01-10T05:26:26;2.13;;;2.03;;
17650;SDS011;26663;59.302;18.082;2023-01-10T05:29:42;2.57;;;2.37;;
17650;SDS011;26663;59.302;18.082;2023-01-10T05:32:48;2.30;;;2.30;;
17650;SDS011;26663;59.302;18.082;2023-01-10T05:35:54;2.70;;;2.50;;
17650;SDS011;26663;59.302;18.082;2023-01-10T05:39:01;2.43;;;2.30;;
17650;SDS011;26663;59.302;18.082;2023-01-10T05:42:09;3.90;;;2.53;;
17650;SDS011;26663;59.302;18.082;2023-01-10T05:45:19;4.60;;;2.80;;
17650;SDS011;26663;59.302;18.082;2023-01-10T05:48:26;3.17;;;2.73;;
17650;SDS011;26663;59.302;18.082;2023-01-10T05:51:36;2.70;;;2.60;;
17650;SDS011;26663;59.302;18.082;2023-01-10T05:54:43;2.40;;;2.30;;
17650;SDS011;26663;59.302;18.082;2023-01-10T05:57:49;3.07;;;2.80;;
17650;SDS011;26663;59.302;18.082;2023-01-10T06:01:02;2.77;;;2.67;;
17650;SDS011;26663;59.302;18.082;2023-01-10T06:04:09;2.80;;;2.70;;
17650;SDS011;26663;59.302;18.082;2023-01-10T06:07:26;2.83;;;2.73;;
17650;SDS011;26663;59.302;18.082;2023-01-10T06:10:34;2.63;;;2.50;;
17650;SDS011;26663;59.302;18.082;2023-01-10T06:13:43;2.77;;;2.57;;
17650;SDS011;26663;59.302;18.082;2023-01-10T06:16:52;2.90;;;2.70;;
17650;SDS011;26663;59.302;18.082;2023-01-10T06:19:57;3.07;;;2.73;;
17650;SDS011;26663;59.302;18.082;2023-01-10T06:23:02;3.17;;;2.97;;
17650;SDS011;26663;59.302;18.082;2023-01-10T06:26:09;3.00;;;2.90;;
17650;SDS011;26663;59.302;18.082;2023-01-10T06:29:17;2.87;;;2.77;;
17650;SDS011;26663;59.302;18.082;2023-01-10T06:32:24;2.87;;;2.73;;
17650;SDS011;26663;59.302;18.082;2023-01-10T06:35:30;3.33;;;3.13;;
17650;SDS011;26663;59.302;18.082;2023-01-10T06:38:37;3.40;;;3.20;;
17650;SDS011;26663;59.302;18.082;2023-01-10T06:41:42;3.83;;;3.53;;
17650;SDS011;26663;59.302;18.082;2023-01-10T06:44:51;4.87;;;3.37;;
17650;SDS011;26663;59.302;18.082;2023-01-10T06:47:59;3.60;;;3.40;;
17650;SDS011;26663;59.302;18.082;2023-01-10T06:51:08;6.27;;;3.87;;
17650;SDS011;26663;59.302;18.082;2023-01-10T06:54:15;13.03;;;4.93;;
17650;SDS011;26663;59.302;18.082;2023-01-10T06:57:21;7.10;;;4.53;;
17650;SDS011;26663;59.302;18.082;2023-01-10T07:00:27;9.07;;;4.83;;
17650;SDS011;26663;59.302;18.082;2023-01-10T07:03:34;8.30;;;5.10;;
17650;SDS011;26663;59.302;18.082;2023-01-10T07:06:39;9.30;;;5.17;;
17650;SDS011;26663;59.302;18.082;2023-01-10T07:09:44;14.10;;;6.13;;
17650;SDS011;26663;59.302;18.082;2023-01-10T07:12:50;14.83;;;6.13;;
17650;SDS011;26663;59.302;18.082;2023-01-10T07:16:00;15.27;;;5.90;;
17650;SDS011;26663;59.302;18.082;2023-01-10T07:19:07;12.80;;;6.07;;
17650;SDS011;26663;59.302;18.082;2023-01-10T07:22:15;13.40;;;6.53;;
17650;SDS011;26663;59.302;18.082;2023-01-10T07:25:20;14.80;;;6.57;;
17650;SDS011;26663;59.302;18.082;2023-01-10T07:28:26;10.63;;;5.57;;
17650;SDS011;26663;59.302;18.082;2023-01-10T07:31:31;11.87;;;5.43;;
17650;SDS011;26663;59.302;18.082;2023-01-10T07:34:38;8.90;;;5.63;;
17650;SDS011;26663;59.302;18.082;2023-01-10T07:37:43;11.53;;;6.00;;
17650;SDS011;26663;59.302;18.082;2023-01-10T07:40:49;11.13;;;6.40;;
17650;SDS011;26663;59.302;18.082;2023-01-10T07:43:54;9.23;;;5.97;;
17650;SDS011;26663;59.302;18.082;2023-01-10T07:46:59;6.73;;;5.33;;
17650;SDS011;26663;59.302;18.082;2023-01-10T07:50:07;9.63;;;5.87;;
17650;SDS011;26663;59.302;18.082;2023-01-10T07:53:13;7.73;;;5.47;;
17650;SDS011;26663;59.302;18.082;2023-01-10T07:56:18;6.40;;;5.73;;
17650;SDS011;26663;59.302;18.082;2023-01-10T07:59:24;6.20;;;5.60;;
17650;SDS011;26663;59.302;18.082;2023-01-10T08:02:29;10.23;;;5.60;;
17650;SDS011;26663;59.302;18.082;2023-01-10T08:05:36;6.30;;;5.70;;
17650;SDS011;26663;59.302;18.082;2023-01-10T08:08:41;7.70;;;5.37;;
17650;SDS011;26663;59.302;18.082;2023-01-10T08:11:46;6.93;;;5.43;;
17650;SDS011;26663;59.302;18.082;2023-01-10T08:14:52;6.00;;;5.40;;
17650;SDS011;26663;59.302;18.082;2023-01-10T08:17:58;5.97;;;5.10;;
17650;SDS011;26663;59.302;18.082;2023-01-10T08:21:11;7.13;;;5.37;;
17650;SDS011;26663;59.302;18.082;2023-01-10T08:24:16;8.07;;;5.67;;
17650;SDS011;26663;59.302;18.082;2023-01-10T08:27:21;7.80;;;5.73;;
17650;SDS011;26663;59.302;18.082;2023-01-10T08:30:26;9.27;;;5.50;;
17650;SDS011;26663;59.302;18.082;2023-01-10T08:33:31;6.13;;;5.53;;
17650;SDS011;26663;59.302;18.082;2023-01-10T08:36:38;6.07;;;5.47;;
17650;SDS011;26663;59.302;18.082;2023-01-10T08:39:44;5.43;;;4.87;;
17650;SDS011;26663;59.302;18.082;2023-01-10T08:42:54;7.40;;;5.37;;
17650;SDS011;26663;59.302;18.082;2023-01-10T08:46:00;6.13;;;4.93;;
17650;SDS011;26663;59.302;18.082;2023-01-10T08:49:06;5.53;;;5.00;;
17650;SDS011;26663;59.302;18.082;2023-01-10T08:52:13;5.93;;;4.90;;
17650;SDS011;26663;59.302;18.082;2023-01-10T08:55:19;5.33;;;4.90;;
17650;SDS011;26663;59.302;18.082;2023-01-10T08:58:24;5.00;;;4.60;;
17650;SDS011;26663;59.302;18.082;2023-01-10T09:01:29;5.77;;;4.40;;
17650;SDS011;26663;59.302;18.082;2023-01-10T09:04:35;5.13;;;4.70;;
17650;SDS011;26663;59.302;18.082;2023-01-10T09:07:42;5.07;;;4.63;;
17650;SDS011;26663;59.302;18.082;2023-01-10T09:10:49;6.27;;;4.90;;
17650;SDS011;26663;59.302;18.082;2023-01-10T09:13:54;7.47;;;5.07;;
17650;SDS011;26663;59.302;18.082;2023-01-10T09:16:59;6.87;;;5.30;;
17650;SDS011;26663;59.302;18.082;2023-01-10T09:20:05;5.90;;;5.27;;
17650;SDS011;26663;59.302;18.082;2023-01-10T09:23:14;5.73;;;5.13;;
17650;SDS011;26663;59.302;18.082;2023-01-10T09:26:21;6.87;;;5.40;;
17650;SDS011;26663;59.302;18.082;2023-01-10T09:29:27;5.87;;;5.27;;
17650;SDS011;26663;59.302;18.082;2023-01-10T09:32:32;6.30;;;5.47;;
17650;SDS011;26663;59.302;18.082;2023-01-10T09:35:38;9.30;;;5.70;;
17650;SDS011;26663;59.302;18.082;2023-01-10T09:38:46;6.00;;;5.20;;
17650;SDS011;26663;59.302;18.082;2023-01-10T09:41:54;5.37;;;4.93;;
17650;SDS011;26663;59.302;18.082;2023-01-10T09:45:11;6.60;;;5.50;;
17650;SDS011;26663;59.302;18.082;2023-01-10T09:48:20;5.77;;;5.27;;
17650;SDS011;26663;59.302;18.082;2023-01-10T09:51:33;5.90;;;5.30;;
17650;SDS011;26663;59.302;18.082;2023-01-10T09:54:41;8.47;;;5.50;;
17650;SDS011;26663;59.302;18.082;2023-01-10T09:57:47;5.67;;;5.17;;
17650;SDS011;26663;59.302;18.082;2023-01-10T10:00:53;5.50;;;4.97;;
17650;SDS011;26663;59.302;18.082;2023-01-10T10:04:01;7.47;;;4.97;;
17650;SDS011;26663;59.302;18.082;2023-01-10T10:07:11;5.67;;;5.10;;
17650;SDS011;26663;59.302;18.082;2023-01-10T10:10:22;7.53;;;4.80;;
17650;SDS011;26663;59.302;18.082;2023-01-10T10:13:32;6.07;;;5.47;;
17650;SDS011;26663;59.302;18.082;2023-01-10T10:16:49;7.57;;;5.90;;
17650;SDS011;26663;59.302;18.082;2023-01-10T10:20:11;7.30;;;5.43;;
17650;SDS011;26663;59.302;18.082;2023-01-10T10:23:35;7.43;;;5.30;;
17650;SDS011;26663;59.302;18.082;2023-01-10T10:26:57;8.43;;;5.60;;
17650;SDS011;26663;59.302;18.082;2023-01-10T10:30:09;6.53;;;5.40;;
17650;SDS011;26663;59.302;18.082;2023-01-10T10:33:27;6.57;;;5.03;;
17650;SDS011;26663;59.302;18.082;2023-01-10T10:36:42;6.53;;;4.77;;
17650;SDS011;26663;59.302;18.082;2023-01-10T10:39:51;5.47;;;5.00;;
17650;SDS011;26663;59.302;18.082;2023-01-10T10:43:05;6.37;;;5.33;;
17650;SDS011;26663;59.302;18.082;2023-01-10T10:46:17;4.80;;;4.50;;
17650;SDS011;26663;59.302;18.082;2023-01-10T10:49:23;5.33;;;4.83;;
17650;SDS011;26663;59.302;18.082;2023-01-10T10:52:38;4.83;;;4.50;;
17650;SDS011;26663;59.302;18.082;2023-01-10T10:55:44;5.20;;;4.80;;
17650;SDS011;26663;59.302;18.082;2023-01-10T10:58:51;5.30;;;4.80;;
17650;SDS011;26663;59.302;18.082;2023-01-10T11:01:57;4.90;;;4.50;;
17650;SDS011;26663;59.302;18.082;2023-01-10T11:05:04;5.67;;;4.40;;
17650;SDS011;26663;59.302;18.082;2023-01-10T11:08:13;4.63;;;4.23;;
17650;SDS011;26663;59.302;18.082;2023-01-10T11:11:21;4.53;;;3.93;;
17650;SDS011;26663;59.302;18.082;2023-01-10T11:14:41;5.53;;;4.17;;
17650;SDS011;26663;59.302;18.082;2023-01-10T11:17:47;5.60;;;4.20;;
17650;SDS011;26663;59.302;18.082;2023-01-10T11:21:10;5.00;;;4.50;;
17650;SDS011;26663;59.302;18.082;2023-01-10T11:24:19;5.97;;;4.87;;
17650;SDS011;26663;59.302;18.082;2023-01-10T11:27:27;5.27;;;4.30;;
17650;SDS011;26663;59.302;18.082;2023-01-10T11:30:35;7.77;;;4.37;;
17650;SDS011;26663;59.302;18.082;2023-01-10T11:33:41;5.90;;;4.70;;
17650;SDS011;26663;59.302;18.082;2023-01-10T11:36:51;6.17;;;4.93;;
17650;SDS011;26663;59.302;18.082;2023-01-10T11:40:07;9.33;;;5.03;;
17650;SDS011;26663;59.302;18.082;2023-01-10T11:43:23;6.33;;;4.93;;
17650;SDS011;26663;59.302;18.082;2023-01-10T11:46:32;7.27;;;5.40;;
17650;SDS011;26663;59.302;18.082;2023-01-10T11:49:38;7.00;;;5.23;;
17650;SDS011;26663;59.302;18.082;2023-01-10T11:52:45;5.77;;;5.23;;
17650;SDS011;26663;59.302;18.082;2023-01-10T11:55:51;4.70;;;4.50;;
17650;SDS011;26663;59.302;18.082;2023-01-10T11:58:59;7.10;;;5.57;;
17650;SDS011;26663;59.302;18.082;2023-01-10T12:02:16;5.53;;;5.00;;
17650;SDS011;26663;59.302;18.082;2023-01-10T12:05:26;12.03;;;5.73;;
17650;SDS011;26663;59.302;18.082;2023-01-10T12:08:33;5.83;;;5.27;;
17650;SDS011;26663;59.302;18.082;2023-01-10T12:11:39;6.03;;;5.10;;
17650;SDS011;26663;59.302;18.082;2023-01-10T12:14:44;6.77;;;5.60;;
17650;SDS011;26663;59.302;18.082;2023-01-10T12:17:52;5.90;;;5.10;;
17650;SDS011;26663;59.302;18.082;2023-01-10T12:20:58;6.17;;;5.47;;
17650;SDS011;26663;59.302;18.082;2023-01-10T12:24:04;8.00;;;5.20;;
17650;SDS011;26663;59.302;18.082;2023-01-10T12:27:14;6.17;;;5.57;;
17650;SDS011;26663;59.302;18.082;2023-01-10T12:30:23;10.27;;;5.97;;
17650;SDS011;26663;59.302;18.082;2023-01-10T12:33:36;9.27;;;5.87;;
17650;SDS011;26663;59.302;18.082;2023-01-10T12:36:50;11.73;;;5.80;;
17650;SDS011;26663;59.302;18.082;2023-01-10T12:40:02;6.53;;;5.60;;
17650;SDS011;26663;59.302;18.082;2023-01-10T12:43:14;6.70;;;5.37;;
17650;SDS011;26663;59.302;18.082;2023-01-10T12:46:39;7.33;;;5.53;;
17650;SDS011;26663;59.302;18.082;2023-01-10T12:50:16;8.53;;;5.13;;
17650;SDS011;26663;59.302;18.082;2023-01-10T12:53:28;9.20;;;5.00;;
17650;SDS011;26663;59.302;18.082;2023-01-10T12:56:35;9.23;;;5.57;;
17650;SDS011;26663;59.302;18.082;2023-01-10T12:59:42;6.43;;;5.10;;
17650;SDS011;26663;59.302;18.082;2023-01-10T13:02:50;9.57;;;5.43;;
17650;SDS011;26663;59.302;18.082;2023-01-10T13:06:03;8.77;;;6.07;;
17650;SDS011;26663;59.302;18.082;2023-01-10T13:09:10;5.33;;;4.87;;
17650;SDS011;26663;59.302;18.082;2023-01-10T13:12:20;10.57;;;5.63;;
17650;SDS011;26663;59.302;18.082;2023-01-10T13:15:31;11.40;;;5.70;;
17650;SDS011;26663;59.302;18.082;2023-01-10T13:18:56;9.67;;;5.10;;
17650;SDS011;26663;59.302;18.082;2023-01-10T13:22:20;9.07;;;5.57;;
17650;SDS011;26663;59.302;18.082;2023-01-10T13:25:29;5.17;;;4.67;;
17650;SDS011;26663;59.302;18.082;2023-01-10T13:28:44;6.03;;;4.70;;
17650;SDS011;26663;59.302;18.082;2023-01-10T13:31:59;4.97;;;4.43;;
17650;SDS011;26663;59.302;18.082;2023-01-10T13:35:11;6.10;;;4.80;;
17650;SDS011;26663;59.302;18.082;2023-01-10T13:38:21;4.57;;;4.17;;
17650;SDS011;26663;59.302;18.082;2023-01-10T13:45:26;4.83;;;4.50;;
17650;SDS011;26663;59.302;18.082;2023-01-10T13:48:33;3.70;;;3.40;;
17650;SDS011;26663;59.302;18.082;2023-01-10T13:52:19;3.97;;;3.57;;
17650;SDS011;26663;59.302;18.082;2023-01-10T13:55:55;4.37;;;3.53;;
17650;SDS011;26663;59.302;18.082;2023-01-10T13:59:03;6.00;;;3.63;;
17650;SDS011;26663;59.302;18.082;2023-01-10T14:02:46;4.97;;;3.60;;
17650;SDS011;26663;59.302;18.082;2023-01-10T14:05:52;3.27;;;3.13;;
17650;SDS011;26663;59.302;18.082;2023-01-10T14:08:59;5.37;;;3.50;;
17650;SDS011;26663;59.302;18.082;2023-01-10T14:12:15;4.10;;;3.80;;
17650;SDS011;26663;59.302;18.082;2023-01-10T14:15:26;3.80;;;3.50;;
17650;SDS011;26663;59.302;18.082;2023-01-10T14:18:34;4.33;;;3.73;;
17650;SDS011;26663;59.302;18.082;2023-01-10T14:21:43;4.13;;;3.73;;
17650;SDS011;26663;59.302;18.082;2023-01-10T14:24:50;3.90;;;3.60;;
17650;SDS011;26663;59.302;18.082;2023-01-10T14:27:57;3.77;;;3.47;;
17650;SDS011;26663;59.302;18.082;2023-01-10T14:31:05;3.57;;;3.30;;
17650;SDS011;26663;59.302;18.082;2023-01-10T14:34:12;5.13;;;3.87;;
17650;SDS011;26663;59.302;18.082;2023-01-10T14:37:23;3.77;;;3.57;;
17650;SDS011;26663;59.302;18.082;2023-01-10T14:40:33;3.60;;;3.40;;
17650;SDS011;26663;59.302;18.082;2023-01-10T14:43:47;4.10;;;3.37;;
17650;SDS011;26663;59.302;18.082;2023-01-10T14:46:56;4.53;;;3.63;;
17650;SDS011;26663;59.302;18.082;2023-01-10T14:50:05;5.03;;;3.60;;
17650;SDS011;26663;59.302;18.082;2023-01-10T14:53:26;6.03;;;3.50;;
17650;SDS011;26663;59.302;18.082;2023-01-10T14:56:36;3.53;;;3.23;;
17650;SDS011;26663;59.302;18.082;2023-01-10T14:59:43;5.23;;;3.30;;
17650;SDS011;26663;59.302;18.082;2023-01-10T15:02:48;5.30;;;3.30;;
17650;SDS011;26663;59.302;18.082;2023-01-10T15:05:55;3.80;;;3.60;;
17650;SDS011;26663;59.302;18.082;2023-01-10T15:09:01;3.77;;;3.50;;
17650;SDS011;26663;59.302;18.082;2023-01-10T15:12:08;4.33;;;3.53;;
17650;SDS011;26663;59.302;18.082;2023-01-10T15:15:18;3.83;;;3.47;;
17650;SDS011;26663;59.302;18.082;2023-01-10T15:18:27;3.20;;;3.00;;
17650;SDS011;26663;59.302;18.082;2023-01-10T15:21:39;3.33;;;3.00;;
17650;SDS011;26663;59.302;18.082;2023-01-10T15:24:55;3.37;;;3.17;;
17650;SDS011;26663;59.302;18.082;2023-01-10T15:28:03;3.97;;;3.17;;
17650;SDS011;26663;59.302;18.082;2023-01-10T15:31:12;3.77;;;3.33;;
17650;SDS011;26663;59.302;18.082;2023-01-10T15:34:19;3.07;;;2.93;;
17650;SDS011;26663;59.302;18.082;2023-01-10T15:37:26;2.93;;;2.83;;
17650;SDS011;26663;59.302;18.082;2023-01-10T15:40:36;4.43;;;3.20;;
17650;SDS011;26663;59.302;18.082;2023-01-10T15:43:43;4.90;;;2.67;;
17650;SDS011;26663;59.302;18.082;2023-01-10T15:46:54;3.13;;;2.80;;
17650;SDS011;26663;59.302;18.082;2023-01-10T15:50:00;3.80;;;3.30;;
17650;SDS011;26663;59.302;18.082;2023-01-10T15:53:06;6.47;;;4.00;;
17650;SDS011;26663;59.302;18.082;2023-01-10T15:56:14;4.30;;;3.60;;
17650;SDS011;26663;59.302;18.082;2023-01-10T15:59:23;3.60;;;3.30;;
17650;SDS011;26663;59.302;18.082;2023-01-10T16:02:32;3.63;;;3.30;;
17650;SDS011;26663;59.302;18.082;2023-01-10T16:05:40;9.40;;;3.67;;
17650;SDS011;26663;59.302;18.082;2023-01-10T16:08:57;3.30;;;3.10;;
17650;SDS011;26663;59.302;18.082;2023-01-10T16:12:03;3.53;;;3.23;;
17650;SDS011;26663;59.302;18.082;2023-01-10T16:15:26;4.30;;;3.50;;
17650;SDS011;26663;59.302;18.082;2023-01-10T16:18:35;5.67;;;3.40;;
17650;SDS011;26663;59.302;18.082;2023-01-10T16:21:41;4.83;;;2.57;;
17650;SDS011;26663;59.302;18.082;2023-01-10T16:24:47;2.87;;;2.50;;
17650;SDS011;26663;59.302;18.082;2023-01-10T16:27:54;3.03;;;2.60;;
17650;SDS011;26663;59.302;18.082;2023-01-10T16:31:00;6.77;;;2.83;;
17650;SDS011;26663;59.302;18.082;2023-01-10T16:34:09;4.73;;;3.00;;
17650;SDS011;26663;59.302;18.082;2023-01-10T16:37:14;2.53;;;2.30;;
17650;SDS011;26663;59.302;18.082;2023-01-10T16:40:21;5.47;;;3.00;;
17650;SDS011;26663;59.302;18.082;2023-01-10T16:43:28;3.10;;;2.90;;
17650;SDS011;26663;59.302;18.082;2023-01-10T16:46:33;2.80;;;2.50;;
17650;SDS011;26663;59.302;18.082;2023-01-10T16:49:39;2.80;;;2.40;;
17650;SDS011;26663;59.302;18.082;2023-01-10T16:52:45;3.37;;;2.37;;
17650;SDS011;26663;59.302;18.082;2023-01-10T16:55:51;5.43;;;2.93;;
17650;SDS011;26663;59.302;18.082;2023-01-10T16:58:56;2.97;;;2.70;;
17650;SDS011;26663;59.302;18.082;2023-01-10T17:02:01;2.27;;;2.17;;
17650;SDS011;26663;59.302;18.082;2023-01-10T17:05:13;2.47;;;2.33;;
17650;SDS011;26663;59.302;18.082;2023-01-10T17:08:19;3.03;;;2.70;;
17650;SDS011;26663;59.302;18.082;2023-01-10T17:11:27;4.77;;;2.63;;
17650;SDS011;26663;59.302;18.082;2023-01-10T17:14:34;5.53;;;2.57;;
17650;SDS011;26663;59.302;18.082;2023-01-10T17:17:40;2.97;;;2.70;;
17650;SDS011;26663;59.302;18.082;2023-01-10T17:20:48;2.70;;;2.33;;
17650;SDS011;26663;59.302;18.082;2023-01-10T17:23:54;6.10;;;2.70;;
17650;SDS011;26663;59.302;18.082;2023-01-10T17:27:00;3.87;;;2.70;;
17650;SDS011;26663;59.302;18.082;2023-01-10T17:30:05;4.17;;;3.13;;
17650;SDS011;26663;59.302;18.082;2023-01-10T17:33:11;11.80;;;5.03;;
17650;SDS011;26663;59.302;18.082;2023-01-10T17:36:18;10.77;;;5.73;;
17650;SDS011;26663;59.302;18.082;2023-01-10T17:39:24;12.87;;;4.97;;
17650;SDS011;26663;59.302;18.082;2023-01-10T17:42:29;15.17;;;5.80;;
17650;SDS011;26663;59.302;18.082;2023-01-10T17:45:37;20.57;;;5.63;;
17650;SDS011;26663;59.302;18.082;2023-01-10T17:48:44;18.03;;;5.40;;
17650;SDS011;26663;59.302;18.082;2023-01-10T17:51:55;5.70;;;3.20;;
17650;SDS011;26663;59.302;18.082;2023-01-10T17:55:02;4.63;;;3.63;;
17650;SDS011;26663;59.302;18.082;2023-01-10T17:58:11;6.47;;;4.33;;
17650;SDS011;26663;59.302;18.082;2023-01-10T18:01:17;11.83;;;4.77;;
17650;SDS011;26663;59.302;18.082;2023-01-10T18:04:26;11.77;;;4.80;;
17650;SDS011;26663;59.302;18.082;2023-01-10T18:07:37;6.23;;;3.27;;
17650;SDS011;26663;59.302;18.082;2023-01-10T18:10:42;7.43;;;4.00;;
17650;SDS011;26663;59.302;18.082;2023-01-10T18:13:49;10.20;;;3.40;;
17650;SDS011;26663;59.302;18.082;2023-01-10T18:16:56;6.90;;;3.10;;
17650;SDS011;26663;59.302;18.082;2023-01-10T18:20:03;4.97;;;3.33;;
17650;SDS011;26663;59.302;18.082;2023-01-10T18:23:12;4.63;;;2.57;;
17650;SDS011;26663;59.302;18.082;2023-01-10T18:26:40;4.20;;;2.30;;
17650;SDS011;26663;59.302;18.082;2023-01-10T18:29:46;7.47;;;2.23;;
17650;SDS011;26663;59.302;18.082;2023-01-10T18:32:52;5.13;;;2.40;;
17650;SDS011;26663;59.302;18.082;2023-01-10T18:36:01;3.67;;;2.30;;
17650;SDS011;26663;59.302;18.082;2023-01-10T18:39:08;3.60;;;2.00;;
17650;SDS011;26663;59.302;18.082;2023-01-10T18:42:13;3.47;;;2.50;;
17650;SDS011;26663;59.302;18.082;2023-01-10T18:45:19;6.63;;;2.87;;
17650;SDS011;26663;59.302;18.082;2023-01-10T18:48:28;6.17;;;2.70;;
17650;SDS011;26663;59.302;18.082;2023-01-10T18:51:35;3.17;;;2.60;;